Plainview, Nebraska
Current Conditions -  °F | °C
As of 4:56 PM on Wednesday 26 Nov 2014 (Local Time) from KOFK Reporting Station
Clear Clear  
Wind Chill:   Ceiling: Unl
Heat Index: 23°   Visibility: 10mi
Dew Point: 15°   Wind: 21mph
Humidity: 72%   Direction: 340°NNW
Pressure: 30.32"   Gusts: NA
Location:  42.35°N, 97.79°W
Report Text: KOFK 262256Z AUTO 34018KT 10SM CLR M05/M09 A3032 RMK AO2 PK WND 34026/2244 SLP287 T10501094
Loading
Personal Weather Stations






























Interactive Weather Map New forecast layout! Learn more

10-Day Weather Forecast

Advertisements
Track Severe Weather on mobile